Time;durP1;ratioP1;P1;durP2;ratioP2;P2;SDS_P1;SDS_P2;PMS_P1;PMS_P2;Temp;Humidity;BMP_temperature;BMP_pressure;BME280_temperature;BME280_humidity;BME280_pressure;Samples;Min_cycle;Max_cycle;Signal;HPM_P1;HPM_P2
2023/02/19 00:00:21;;;;;;;13.30;7.38;;;11.40;99.90;;;;;;5147031;23;20210;-93
2023/02/19 00:02:22;;;;;;;16.02;7.70;;;11.30;99.90;;;;;;5147171;23;20537;-92
2023/02/19 00:04:23;;;;;;;15.95;7.22;;;11.30;99.90;;;;;;5146889;23;20506;-92
2023/02/19 00:06:27;;;;;;;15.05;7.30;;;11.40;99.90;;;;;;5171067;23;20226;-91
2023/02/19 00:08:33;;;;;;;15.07;7.18;;;11.50;99.90;;;;;;5145822;23;20173;-92
2023/02/19 00:10:33;;;;;;;13.95;6.53;;;11.40;99.90;;;;;;5170747;23;20147;-91
2023/02/19 00:12:34;;;;;;;13.43;7.18;;;11.50;99.90;;;;;;5145682;23;20178;-92
2023/02/19 00:14:35;;;;;;;12.25;7.18;;;11.50;99.90;;;;;;5145688;23;20155;-93
2023/02/19 00:16:37;;;;;;;15.55;7.18;;;11.60;99.90;;;;;;5171103;23;20146;-91
2023/02/19 00:18:38;;;;;;;13.00;7.30;;;11.50;99.90;;;;;;5147219;23;20148;-91
2023/02/19 00:20:41;;;;;;;12.32;6.28;;;11.60;99.90;;;;;;5170818;23;20147;-93
2023/02/19 00:22:42;;;;;;;16.35;6.80;;;11.50;99.90;;;;;;5146968;23;20151;-92
2023/02/19 00:24:42;;;;;;;17.83;6.78;;;11.50;99.90;;;;;;5145395;23;20484;-93
2023/02/19 00:26:44;;;;;;;13.80;7.07;;;11.60;99.90;;;;;;5169980;23;20506;-92
2023/02/19 00:28:46;;;;;;;9.10;5.90;;;11.60;99.90;;;;;;5171656;23;20147;-92
2023/02/19 00:30:48;;;;;;;14.00;6.15;;;11.60;99.90;;;;;;5146039;23;20690;-92
2023/02/19 00:32:50;;;;;;;15.93;6.55;;;11.60;99.90;;;;;;5145888;23;20265;-91
2023/02/19 00:34:51;;;;;;;15.57;6.65;;;11.60;99.90;;;;;;5145194;23;20156;-91
2023/02/19 00:36:51;;;;;;;12.20;6.32;;;11.60;99.90;;;;;;5144909;23;20602;-91
2023/02/19 00:38:53;;;;;;;15.25;6.25;;;11.70;99.90;;;;;;5145314;23;20175;-90
2023/02/19 00:40:54;;;;;;;13.63;5.75;;;11.70;99.90;;;;;;5144993;23;20671;-93
2023/02/19 00:42:56;;;;;;;15.65;5.43;;;11.70;99.90;;;;;;5145914;23;20127;-92
2023/02/19 00:44:57;;;;;;;10.95;4.90;;;11.60;99.90;;;;;;5145383;23;20231;-91
2023/02/19 00:46:58;;;;;;;15.63;6.05;;;11.60;99.90;;;;;;5146056;23;20622;-92
2023/02/19 00:48:59;;;;;;;11.40;4.88;;;11.70;99.90;;;;;;5146343;23;20506;-91
2023/02/19 00:51:00;;;;;;;13.63;5.30;;;11.60;99.90;;;;;;5147288;23;20144;-91
2023/02/19 00:53:00;;;;;;;16.08;5.60;;;11.60;99.90;;;;;;5147922;23;20190;-91
2023/02/19 00:55:02;;;;;;;10.65;4.65;;;11.50;99.90;;;;;;5145984;23;20290;-91
2023/02/19 00:57:02;;;;;;;10.35;4.72;;;11.40;99.90;;;;;;5169818;23;20161;-92
2023/02/19 00:59:03;;;;;;;12.35;4.97;;;11.40;99.90;;;;;;5145666;23;20182;-92
2023/02/19 01:01:06;;;;;;;14.75;4.78;;;11.60;99.90;;;;;;5145462;23;20156;-91
2023/02/19 01:03:06;;;;;;;9.82;4.05;;;11.50;99.90;;;;;;5146273;23;20610;-91
2023/02/19 01:05:07;;;;;;;11.23;4.70;;;11.50;99.90;;;;;;5145347;23;20162;-92
2023/02/19 01:07:09;;;;;;;14.63;4.55;;;11.50;99.90;;;;;;5145179;23;20152;-90
2023/02/19 01:09:14;;;;;;;13.20;4.07;;;11.50;99.90;;;;;;5145355;23;20177;-92
2023/02/19 01:11:16;;;;;;;16.83;4.38;;;11.50;99.90;;;;;;5146955;23;20147;-92
2023/02/19 01:13:17;;;;;;;10.95;3.78;;;11.40;99.90;;;;;;5171599;23;20186;-91
2023/02/19 01:15:18;;;;;;;7.72;3.63;;;11.30;99.90;;;;;;5145334;23;20187;-92
2023/02/19 01:17:20;;;;;;;20.70;4.05;;;11.30;99.90;;;;;;5145999;23;20186;-91
2023/02/19 01:19:21;;;;;;;12.73;3.80;;;11.60;99.90;;;;;;5145932;23;20179;-92
2023/02/19 01:21:25;;;;;;;13.00;3.58;;;11.60;99.90;;;;;;5144969;23;20147;-91
2023/02/19 01:23:26;;;;;;;10.07;3.33;;;11.70;99.90;;;;;;5145200;23;20186;-92
2023/02/19 01:25:26;;;;;;;13.90;4.05;;;11.50;99.90;;;;;;5145464;23;20152;-93
2023/02/19 01:27:27;;;;;;;15.80;3.78;;;11.40;99.90;;;;;;5170667;23;20601;-92
2023/02/19 01:29:28;;;;;;;13.00;3.47;;;11.40;99.90;;;;;;5145694;23;20180;-91
2023/02/19 01:31:29;;;;;;;14.00;4.00;;;11.30;99.90;;;;;;5144529;23;20147;-93
2023/02/19 01:33:30;;;;;;;17.77;3.83;;;11.20;99.90;;;;;;5145627;23;20668;-91
2023/02/19 01:35:31;;;;;;;14.93;3.03;;;11.30;99.90;;;;;;5170187;23;20177;-91
2023/02/19 01:37:32;;;;;;;15.60;3.20;;;11.30;99.90;;;;;;5145415;23;20160;-91
2023/02/19 01:39:33;;;;;;;14.38;3.60;;;11.50;99.90;;;;;;5144719;23;20178;-92
2023/02/19 01:41:38;;;;;;;15.43;3.10;;;11.50;99.90;;;;;;5144828;23;20152;-91
2023/02/19 01:43:59;;;;;;;13.73;3.00;;;11.40;99.90;;;;;;5145661;23;20175;-92
2023/02/19 01:46:02;;;;;;;14.02;3.20;;;11.40;99.90;;;;;;5146464;23;20543;-92
2023/02/19 01:48:08;;;;;;;16.02;3.33;;;11.50;99.90;;;;;;5145528;23;20150;-91
2023/02/19 01:50:09;;;;;;;12.18;2.75;;;11.50;99.90;;;;;;5144561;23;20182;-91
2023/02/19 01:52:34;;;;;;;12.85;3.60;;;11.40;99.90;;;;;;5169843;23;20543;-93
2023/02/19 01:54:39;;;;;;;16.50;3.90;;;11.30;99.90;;;;;;5144400;23;20230;-92
2023/02/19 01:56:42;;;;;;;16.80;2.90;;;11.20;99.90;;;;;;5145336;23;20156;-91
2023/02/19 01:58:44;;;;;;;19.40;3.30;;;11.20;99.90;;;;;;5143830;23;20179;-92
2023/02/19 02:00:47;;;;;;;13.75;3.10;;;11.20;99.90;;;;;;5146628;23;20148;-91
2023/02/19 02:02:51;;;;;;;18.88;3.25;;;11.30;99.90;;;;;;5145051;23;20152;-91
2023/02/19 02:04:53;;;;;;;17.98;3.05;;;11.30;99.90;;;;;;5144301;23;20159;-91
2023/02/19 02:06:56;;;;;;;13.60;2.90;;;11.20;99.90;;;;;;5146566;23;20147;-91
2023/02/19 02:11:19;;;;;;;16.35;3.17;;;11.20;99.90;;;;;;5169739;23;20533;-92
2023/02/19 02:13:20;;;;;;;13.93;3.00;;;11.30;99.90;;;;;;5145051;23;20533;-94
2023/02/19 02:15:28;;;;;;;13.45;2.90;;;11.30;99.90;;;;;;5144605;23;20155;-92
2023/02/19 02:18:01;;;;;;;12.50;2.20;;;11.30;99.90;;;;;;5170884;23;20150;-91
2023/02/19 02:20:14;;;;;;;12.35;2.45;;;11.20;99.90;;;;;;5145159;22;20202;-92
2023/02/19 02:22:23;;;;;;;14.15;2.22;;;11.10;99.90;;;;;;5145412;23;20182;-92
2023/02/19 02:24:36;;;;;;;12.60;2.47;;;11.20;99.90;;;;;;5170479;23;20225;-91
2023/02/19 02:26:56;;;;;;;14.30;2.35;;;11.10;99.90;;;;;;5144950;23;20204;-91
2023/02/19 02:29:16;;;;;;;14.02;2.38;;;11.20;99.90;;;;;;5146536;23;20175;-92
2023/02/19 02:31:39;;;;;;;15.88;2.17;;;11.20;99.90;;;;;;5144210;23;20214;-93
2023/02/19 02:33:53;;;;;;;10.85;2.42;;;11.20;99.90;;;;;;5144963;23;20273;-91
2023/02/19 02:36:12;;;;;;;15.10;2.65;;;11.20;99.90;;;;;;5172066;23;20186;-91
2023/02/19 02:38:16;;;;;;;8.75;1.95;;;11.10;99.90;;;;;;5145161;23;20591;-92
2023/02/19 02:40:18;;;;;;;10.27;2.10;;;11.10;99.90;;;;;;5169453;23;20171;-91
2023/02/19 02:42:28;;;;;;;15.18;2.08;;;11.10;99.90;;;;;;5144515;23;20166;-92
2023/02/19 02:47:39;;;;;;;14.07;2.25;;;11.30;99.90;;;;;;5171326;23;20155;-91
2023/02/19 02:49:28;;;;;;;9.77;2.30;;;11.40;99.90;;;;;;5173535;23;20163;-92
2023/02/19 02:51:37;;;;;;;12.13;2.20;;;11.30;99.90;;;;;;5145482;23;20160;-91
2023/02/19 02:56:12;;;;;;;13.07;2.50;;;11.20;99.90;;;;;;5171357;23;20155;-92
2023/02/19 02:58:14;;;;;;;12.57;1.95;;;11.40;99.90;;;;;;5147228;23;20901;-92
2023/02/19 03:00:15;;;;;;;13.60;2.20;;;11.50;99.90;;;;;;5147102;23;20168;-90
2023/02/19 03:02:21;;;;;;;12.50;2.40;;;11.40;99.90;;;;;;5149349;23;20213;-92
2023/02/19 03:07:11;;;;;;;13.60;1.92;;;11.50;99.90;;;;;;5172731;23;20158;-93
2023/02/19 03:09:39;;;;;;;17.23;2.40;;;11.30;99.90;;;;;;5146142;23;20486;-91
2023/02/19 03:21:18;;;;;;;14.85;2.58;;;11.30;99.90;;;;;;5173349;23;20150;-91
2023/02/19 03:26:02;;;;;;;14.95;2.40;;;11.50;99.90;;;;;;5147582;23;20143;-91
2023/02/19 03:29:21;;;;;;;11.50;1.73;;;11.50;99.90;;;;;;5199537;22;20150;-92
2023/02/19 03:30:52;;;;;;;14.18;2.00;;;11.30;99.90;;;;;;5171394;23;20189;-91
2023/02/19 03:33:01;;;;;;;12.70;1.75;;;11.30;99.90;;;;;;5146328;23;20186;-93
2023/02/19 03:35:09;;;;;;;17.60;2.13;;;11.30;99.90;;;;;;5172203;23;20491;-91
2023/02/19 03:37:28;;;;;;;11.02;2.03;;;11.20;99.90;;;;;;5149879;23;20521;-91
2023/02/19 03:39:32;;;;;;;16.85;2.13;;;11.20;99.90;;;;;;5145902;23;20168;-93
2023/02/19 03:42:05;;;;;;;14.73;1.90;;;11.30;99.90;;;;;;5145246;23;20487;-92
2023/02/19 03:44:10;;;;;;;15.73;2.10;;;11.30;99.90;;;;;;5172977;22;20150;-91
2023/02/19 03:46:22;;;;;;;19.58;2.33;;;11.40;99.90;;;;;;5148557;23;20152;-92
2023/02/19 03:48:40;;;;;;;15.75;2.25;;;11.50;99.90;;;;;;5147162;23;20210;-91
2023/02/19 03:53:51;;;;;;;8.75;1.90;;;11.50;99.90;;;;;;5106103;23;20240;-91
2023/02/19 03:56:12;;;;;;;16.67;3.22;;;11.30;99.90;;;;;;5096892;23;20153;-93
2023/02/19 03:58:28;;;;;;;12.52;2.08;;;11.40;99.90;;;;;;5096439;23;20157;-92
2023/02/19 04:00:42;;;;;;;11.45;1.90;;;11.30;99.90;;;;;;5096290;23;20263;-92
2023/02/19 04:02:52;;;;;;;19.80;2.83;;;11.40;99.90;;;;;;5096393;23;20153;-92
2023/02/19 04:05:03;;;;;;;10.10;2.47;;;11.40;99.90;;;;;;5097135;23;20157;-91
2023/02/19 04:07:05;;;;;;;14.63;2.65;;;11.50;99.90;;;;;;5096763;23;20691;-92
2023/02/19 04:09:11;;;;;;;13.93;2.10;;;11.50;99.90;;;;;;5096575;23;20216;-93
2023/02/19 04:11:14;;;;;;;17.83;2.70;;;11.50;99.90;;;;;;5096097;23;20152;-92
2023/02/19 04:13:25;;;;;;;17.63;2.67;;;11.50;99.90;;;;;;5072783;23;20185;-92
2023/02/19 04:15:31;;;;;;;22.10;2.33;;;11.60;99.90;;;;;;5095030;23;20153;-92
2023/02/19 04:17:39;;;;;;;19.15;2.45;;;11.60;99.90;;;;;;5096447;23;20153;-92
2023/02/19 04:19:41;;;;;;;16.15;2.08;;;11.50;99.90;;;;;;5071506;23;20197;-92
2023/02/19 04:21:44;;;;;;;21.83;3.00;;;11.50;99.90;;;;;;5096146;23;20663;-91
2023/02/19 04:23:45;;;;;;;18.17;2.10;;;11.50;99.90;;;;;;5107478;23;20250;-91
2023/02/19 04:25:49;;;;;;;13.88;2.60;;;11.40;99.90;;;;;;5146900;23;20159;-93
2023/02/19 04:27:50;;;;;;;19.65;2.60;;;11.40;99.90;;;;;;5145410;23;20158;-92
2023/02/19 04:29:51;;;;;;;18.88;3.15;;;11.20;99.90;;;;;;5170189;23;20167;-93
2023/02/19 04:31:52;;;;;;;18.88;2.33;;;11.20;99.90;;;;;;5171198;23;20243;-93
2023/02/19 04:33:53;;;;;;;15.35;2.45;;;11.20;99.90;;;;;;5171077;23;20187;-92
2023/02/19 04:35:54;;;;;;;19.13;2.95;;;11.30;99.90;;;;;;5147541;23;20227;-92
2023/02/19 04:37:56;;;;;;;18.13;2.50;;;11.20;99.90;;;;;;5146381;23;20158;-92
2023/02/19 04:39:57;;;;;;;23.98;2.67;;;11.30;99.90;;;;;;5169966;22;20221;-92
2023/02/19 04:41:58;;;;;;;20.25;2.60;;;11.30;99.90;;;;;;5146623;23;20580;-92
2023/02/19 04:43:59;;;;;;;20.60;3.30;;;11.20;99.90;;;;;;5147051;23;20630;-93
2023/02/19 04:46:01;;;;;;;18.60;2.70;;;11.30;99.90;;;;;;5145502;23;20602;-93
2023/02/19 04:48:02;;;;;;;19.05;2.30;;;11.50;99.90;;;;;;5146377;23;20177;-91
2023/02/19 04:50:03;;;;;;;18.38;2.88;;;11.50;99.90;;;;;;5169787;23;20210;-91
2023/02/19 04:52:03;;;;;;;19.10;2.35;;;11.20;99.90;;;;;;5145617;23;20595;-92
2023/02/19 04:54:05;;;;;;;14.60;2.67;;;11.30;99.90;;;;;;5145413;23;20246;-92
2023/02/19 04:56:11;;;;;;;20.48;2.28;;;11.30;99.90;;;;;;5171704;23;20154;-94
2023/02/19 04:58:12;;;;;;;19.50;2.42;;;11.30;99.90;;;;;;5146373;23;20155;-93
2023/02/19 05:00:14;;;;;;;20.63;2.47;;;11.30;99.90;;;;;;5173374;22;20170;-92
2023/02/19 05:02:14;;;;;;;15.57;2.60;;;11.30;99.90;;;;;;5145667;23;20147;-92
2023/02/19 05:04:15;;;;;;;20.90;2.60;;;11.30;99.90;;;;;;5145919;23;20498;-92
2023/02/19 05:06:16;;;;;;;20.48;2.63;;;11.40;99.90;;;;;;5171226;23;20482;-92
2023/02/19 05:08:18;;;;;;;18.35;2.22;;;11.40;99.90;;;;;;5146526;23;20151;-92
2023/02/19 05:10:18;;;;;;;16.15;2.60;;;11.30;99.90;;;;;;5145062;23;20175;-91
2023/02/19 05:12:19;;;;;;;19.75;2.75;;;11.20;99.90;;;;;;5144876;23;20566;-91
2023/02/19 05:14:20;;;;;;;18.15;2.42;;;11.30;99.90;;;;;;5145028;23;20245;-93
2023/02/19 05:16:21;;;;;;;19.15;2.65;;;11.10;99.90;;;;;;5170548;23;20154;-92
2023/02/19 05:18:22;;;;;;;15.38;2.25;;;11.10;99.90;;;;;;5144345;23;20158;-91
2023/02/19 05:20:23;;;;;;;16.00;2.35;;;11.30;99.90;;;;;;5172473;23;20186;-91
2023/02/19 05:22:24;;;;;;;21.73;2.85;;;11.30;99.90;;;;;;5145585;23;20158;-93
2023/02/19 05:24:26;;;;;;;19.45;2.45;;;11.20;99.90;;;;;;5169848;23;20155;-93
2023/02/19 05:26:28;;;;;;;15.90;2.92;;;11.20;99.90;;;;;;5145435;23;20132;-91
2023/02/19 05:28:28;;;;;;;23.63;2.45;;;11.20;99.90;;;;;;5145863;23;20218;-91
2023/02/19 05:30:29;;;;;;;21.10;3.28;;;11.30;99.90;;;;;;5145825;23;20172;-93
2023/02/19 05:32:30;;;;;;;17.42;2.38;;;11.30;99.90;;;;;;5146174;23;20160;-93
2023/02/19 05:34:31;;;;;;;23.95;2.90;;;11.30;99.90;;;;;;5145326;23;20194;-91
2023/02/19 05:36:32;;;;;;;19.95;2.47;;;11.30;99.90;;;;;;5146361;23;20155;-92
2023/02/19 05:38:34;;;;;;;18.13;3.00;;;11.30;99.90;;;;;;5169317;23;20158;-92
2023/02/19 05:40:34;;;;;;;23.75;2.83;;;11.20;99.90;;;;;;5144877;23;20189;-92
2023/02/19 05:42:35;;;;;;;24.52;2.95;;;11.40;99.90;;;;;;5145291;23;20611;-92
2023/02/19 05:44:36;;;;;;;19.90;2.90;;;11.50;99.90;;;;;;5144386;23;20245;-93
2023/02/19 05:46:37;;;;;;;23.98;2.92;;;11.50;99.90;;;;;;5143983;23;20487;-92
2023/02/19 05:48:38;;;;;;;17.27;2.65;;;11.60;99.90;;;;;;5144637;23;20151;-92
2023/02/19 05:50:39;;;;;;;16.63;2.55;;;11.50;99.90;;;;;;5145808;23;20199;-92
2023/02/19 05:52:46;;;;;;;19.35;2.67;;;11.30;99.90;;;;;;5146169;23;20147;-92
2023/02/19 05:54:46;;;;;;;16.20;2.75;;;11.40;99.90;;;;;;5144618;23;20157;-93
2023/02/19 05:56:55;;;;;;;20.27;2.60;;;11.50;99.90;;;;;;5172779;22;20447;-92
2023/02/19 05:58:56;;;;;;;18.85;2.83;;;11.30;99.90;;;;;;5145011;23;20272;-93
2023/02/19 06:00:57;;;;;;;16.25;2.58;;;11.30;99.90;;;;;;5144079;23;20152;-92
2023/02/19 06:02:58;;;;;;;17.02;2.72;;;11.30;99.90;;;;;;5145309;23;20154;-92
2023/02/19 06:05:00;;;;;;;21.48;2.78;;;11.10;99.90;;;;;;5144273;23;20281;-92
2023/02/19 06:07:06;;;;;;;11.73;2.55;;;11.20;99.90;;;;;;5143971;23;20184;-92
2023/02/19 06:09:10;;;;;;;20.17;3.22;;;11.50;99.90;;;;;;5143013;23;20593;-93
2023/02/19 06:11:21;;;;;;;16.95;3.28;;;11.50;99.90;;;;;;5143075;23;20470;-94
2023/02/19 06:13:28;;;;;;;15.07;2.90;;;11.50;99.90;;;;;;5143510;23;20183;-92
2023/02/19 06:15:39;;;;;;;19.05;2.40;;;11.30;99.90;;;;;;5143100;23;20148;-94
2023/02/19 06:17:40;;;;;;;19.73;3.08;;;11.20;99.90;;;;;;5143195;23;20186;-92
2023/02/19 06:19:43;;;;;;;17.63;2.80;;;11.30;99.90;;;;;;5167734;23;20244;-93
2023/02/19 06:21:51;;;;;;;23.10;3.80;;;11.30;99.90;;;;;;5144150;23;20156;-93
2023/02/19 06:23:55;;;;;;;19.17;3.03;;;11.30;99.90;;;;;;5143957;23;20147;-94
2023/02/19 06:26:05;;;;;;;23.08;2.92;;;11.10;99.90;;;;;;5144926;23;20660;-93
2023/02/19 06:28:08;;;;;;;22.58;3.17;;;11.20;99.90;;;;;;5144938;23;20151;-93
2023/02/19 06:30:30;;;;;;;15.43;3.20;;;11.30;99.90;;;;;;5144412;23;20174;-92
2023/02/19 06:32:39;;;;;;;19.77;3.15;;;11.30;99.90;;;;;;5144704;23;20155;-94
2023/02/19 06:35:03;;;;;;;24.10;3.25;;;11.20;99.90;;;;;;5143517;23;20171;-92
2023/02/19 06:37:07;;;;;;;16.35;3.88;;;11.10;99.90;;;;;;5131229;23;20155;-93
2023/02/19 06:39:34;;;;;;;22.30;2.83;;;11.30;99.90;;;;;;5195280;22;20165;-93
2023/02/19 06:41:38;;;;;;;13.32;2.70;;;11.30;99.90;;;;;;5144387;23;20163;-94
2023/02/19 06:43:42;;;;;;;19.08;3.42;;;11.30;99.90;;;;;;5144324;23;20154;-93
2023/02/19 06:45:45;;;;;;;22.40;2.95;;;11.30;99.90;;;;;;5144737;23;20178;-93
2023/02/19 06:47:48;;;;;;;18.65;2.67;;;11.20;99.90;;;;;;5144580;23;20208;-92
2023/02/19 06:49:54;;;;;;;19.63;2.55;;;11.20;99.90;;;;;;5144502;23;20211;-93
2023/02/19 06:51:58;;;;;;;14.90;2.38;;;11.20;99.90;;;;;;5144530;23;20147;-94
2023/02/19 06:54:01;;;;;;;19.27;3.22;;;11.30;99.90;;;;;;5145025;23;20213;-93
2023/02/19 06:56:26;;;;;;;20.50;3.00;;;11.20;99.90;;;;;;5169507;23;20455;-93
2023/02/19 06:58:27;;;;;;;18.15;3.22;;;11.30;99.90;;;;;;5144962;23;20155;-92
2023/02/19 07:00:28;;;;;;;18.60;2.67;;;11.30;99.90;;;;;;5144093;23;20179;-93
2023/02/19 07:02:55;;;;;;;20.10;2.75;;;11.20;99.90;;;;;;5144185;23;20528;-92
2023/02/19 07:05:09;;;;;;;29.65;3.00;;;11.10;99.90;;;;;;5144726;23;20158;-92
2023/02/19 07:07:21;;;;;;;14.48;2.47;;;11.00;99.90;;;;;;5146002;23;20238;-93
2023/02/19 07:09:27;;;;;;;16.80;2.35;;;10.90;99.90;;;;;;5144271;23;20171;-92
2023/02/19 07:11:38;;;;;;;14.63;2.53;;;10.80;99.90;;;;;;5145643;23;20151;-93
2023/02/19 07:13:56;;;;;;;21.02;2.63;;;11.00;99.90;;;;;;5144948;23;20515;-92
2023/02/19 07:16:02;;;;;;;11.73;2.28;;;11.10;99.90;;;;;;5144007;23;20168;-93
2023/02/19 07:18:09;;;;;;;17.35;2.75;;;11.30;99.90;;;;;;5169571;23;20184;-92
2023/02/19 07:20:15;;;;;;;14.00;2.78;;;11.20;99.90;;;;;;5144614;23;20187;-93
2023/02/19 07:22:26;;;;;;;14.38;3.08;;;11.30;99.90;;;;;;5144637;23;20191;-93
2023/02/19 07:24:38;;;;;;;15.90;2.55;;;11.40;99.90;;;;;;5145147;23;20238;-92
2023/02/19 07:26:49;;;;;;;;;;;;;;;;;;;;;
2023/02/19 07:28:51;;;;;;;17.92;2.70;;;11.20;99.90;;;;;;5169449;23;20154;-93
2023/02/19 07:30:51;;;;;;;14.20;2.58;;;11.20;99.90;;;;;;5169094;23;20150;-93
2023/02/19 07:33:02;;;;;;;19.40;3.38;;;11.40;99.90;;;;;;5169536;23;20165;-93
2023/02/19 07:35:10;;;;;;;11.95;2.88;;;11.60;99.90;;;;;;5144616;23;20155;-93
2023/02/19 07:37:13;;;;;;;19.15;3.67;;;11.40;99.90;;;;;;5144002;23;20151;-94
2023/02/19 07:39:19;;;;;;;21.42;5.53;;;11.50;99.90;;;;;;5144460;23;20519;-91
2023/02/19 07:41:26;;;;;;;17.48;2.50;;;11.60;99.90;;;;;;5144201;23;20148;-92
2023/02/19 07:43:32;;;;;;;12.88;2.60;;;11.30;99.90;;;;;;5144692;23;20234;-93
2023/02/19 07:45:41;;;;;;;12.00;2.10;;;11.10;99.90;;;;;;5169119;23;20232;-93
2023/02/19 07:47:51;;;;;;;16.25;2.33;;;11.00;99.90;;;;;;5145703;23;20158;-93
2023/02/19 07:49:54;;;;;;;15.65;2.25;;;11.00;99.90;;;;;;5169069;23;20190;-92
2023/02/19 07:52:08;;;;;;;15.90;2.05;;;11.20;99.90;;;;;;5171880;22;20142;-93
2023/02/19 07:54:21;;;;;;;;;;;;;;;;;;;;;
2023/02/19 07:56:22;;;;;;;15.80;2.17;;;11.10;99.90;;;;;;5169165;23;20155;-93
2023/02/19 07:59:01;;;;;;;13.38;1.92;;;11.40;99.90;;;;;;5169334;22;20242;-93
2023/02/19 08:03:44;;;;;;;18.73;2.40;;;11.30;99.90;;;;;;5169146;23;20153;-93
2023/02/19 08:05:55;;;;;;;9.93;2.28;;;11.30;99.90;;;;;;5144059;23;20151;-95
2023/02/19 08:08:00;;;;;;;12.73;2.22;;;11.30;99.90;;;;;;5144206;23;20479;-92
2023/02/19 08:14:45;;;;;;;15.77;2.38;;;11.50;99.90;;;;;;5168881;23;20159;-93
2023/02/19 08:16:52;;;;;;;21.08;2.92;;;11.60;99.90;;;;;;5143780;23;20151;-92
2023/02/19 08:18:53;;;;;;;11.65;2.25;;;11.60;99.90;;;;;;5143649;23;20183;-91
2023/02/19 08:20:55;;;;;;;11.07;2.00;;;11.50;99.90;;;;;;5143923;23;20156;-94
2023/02/19 08:23:27;;;;;;;13.10;2.17;;;11.30;99.90;;;;;;5169077;23;20143;-92
2023/02/19 08:25:28;;;;;;;16.70;2.28;;;11.40;99.90;;;;;;5143713;23;20633;-93
2023/02/19 08:27:29;;;;;;;17.83;2.33;;;11.50;99.90;;;;;;5168825;23;20628;-92
2023/02/19 08:29:30;;;;;;;20.10;2.40;;;11.50;99.90;;;;;;5168816;23;20174;-93
2023/02/19 08:31:31;;;;;;;11.68;2.25;;;11.40;99.90;;;;;;5144157;23;20152;-92
2023/02/19 08:33:33;;;;;;;16.35;2.88;;;11.30;99.90;;;;;;5144314;23;20187;-92
2023/02/19 08:35:40;;;;;;;16.60;2.88;;;11.30;99.90;;;;;;5144787;23;20152;-94
2023/02/19 08:37:44;;;;;;;19.63;2.45;;;11.50;99.90;;;;;;5144015;23;20151;-92
2023/02/19 08:39:49;;;;;;;7.93;1.85;;;11.60;99.90;;;;;;5143825;23;20195;-93
2023/02/19 08:41:50;;;;;;;13.30;2.08;;;11.50;99.90;;;;;;5143403;23;20155;-94
2023/02/19 08:43:53;;;;;;;14.10;2.15;;;11.50;99.90;;;;;;5167615;23;20210;-93
2023/02/19 08:45:54;;;;;;;15.13;2.00;;;11.50;99.90;;;;;;5143905;23;20194;-92
2023/02/19 08:47:55;;;;;;;14.25;2.53;;;11.50;99.90;;;;;;5168362;23;20659;-93
2023/02/19 08:50:16;;;;;;;15.65;3.00;;;11.40;99.90;;;;;;5143534;23;20171;-93
2023/02/19 08:57:25;;;;;;;13.25;2.42;;;11.20;99.90;;;;;;5168303;23;20146;-92
2023/02/19 08:59:32;;;;;;;15.02;2.65;;;11.00;99.90;;;;;;5167949;23;20175;-93
2023/02/19 09:01:33;;;;;;;14.55;2.47;;;11.10;99.90;;;;;;5143098;23;20674;-92
2023/02/19 09:03:36;;;;;;;11.80;2.50;;;11.40;99.90;;;;;;5143074;23;20182;-93
2023/02/19 09:05:46;;;;;;;19.67;2.47;;;11.50;99.90;;;;;;5142837;23;20156;-92
2023/02/19 09:07:47;;;;;;;10.32;2.13;;;11.70;99.90;;;;;;5142889;23;20155;-91
2023/02/19 09:09:53;;;;;;;11.60;2.42;;;11.60;99.90;;;;;;5143469;23;20254;-92
2023/02/19 09:11:57;;;;;;;11.15;2.42;;;11.50;99.90;;;;;;5142998;23;20213;-92
2023/02/19 09:14:07;;;;;;;;;;;;;;;;;;;;;
2023/02/19 09:16:20;;;;;;;15.23;2.30;;;11.60;99.90;;;;;;5167802;23;20530;-93
2023/02/19 09:20:34;;;;;;;12.48;2.10;;;11.60;99.90;;;;;;5195534;22;20193;-95
2023/02/19 09:22:35;;;;;;;14.25;2.13;;;11.70;99.90;;;;;;5168677;23;20155;-95
2023/02/19 09:24:36;;;;;;;11.73;1.95;;;11.70;99.90;;;;;;5193906;22;20245;-93
2023/02/19 09:26:37;;;;;;;17.55;2.38;;;11.70;99.90;;;;;;5168726;23;20158;-95
2023/02/19 09:28:40;;;;;;;11.77;2.00;;;11.70;99.90;;;;;;5167620;23;20146;-92
2023/02/19 09:30:41;;;;;;;10.70;2.28;;;11.90;99.90;;;;;;5143387;23;20219;-91
2023/02/19 09:32:41;;;;;;;17.23;2.05;;;12.20;99.90;;;;;;5143827;23;20535;-93
2023/02/19 09:34:42;;;;;;;12.60;2.60;;;12.10;99.90;;;;;;5142876;23;20660;-93
2023/02/19 09:36:43;;;;;;;14.65;2.20;;;12.30;99.90;;;;;;5143040;23;20159;-92
2023/02/19 09:38:44;;;;;;;8.45;1.80;;;12.40;99.90;;;;;;5143115;23;20575;-92
2023/02/19 09:40:45;;;;;;;14.95;2.28;;;12.40;99.90;;;;;;5143459;23;20190;-91
2023/02/19 09:42:47;;;;;;;11.10;2.17;;;12.40;99.90;;;;;;5143264;23;20148;-92
2023/02/19 09:44:51;;;;;;;13.90;2.35;;;12.30;99.90;;;;;;5143487;23;20228;-94
2023/02/19 09:46:53;;;;;;;9.88;1.80;;;11.90;99.90;;;;;;5193846;22;20157;-92
2023/02/19 09:49:05;;;;;;;9.27;1.95;;;11.70;99.90;;;;;;5168271;23;20175;-92
2023/02/19 09:51:08;;;;;;;9.27;1.98;;;11.90;99.90;;;;;;5142989;23;20221;-93
2023/02/19 09:53:17;;;;;;;10.70;2.15;;;11.90;99.90;;;;;;5143361;23;20182;-95
2023/02/19 09:55:41;;;;;;;12.60;1.83;;;11.90;99.90;;;;;;5143153;23;20157;-92
2023/02/19 09:57:43;;;;;;;11.32;2.00;;;11.70;99.90;;;;;;5143125;23;20151;-94
2023/02/19 09:59:50;;;;;;;14.60;2.08;;;11.50;99.90;;;;;;5142625;23;20171;-91
2023/02/19 10:02:10;;;;;;;13.02;2.53;;;11.70;99.90;;;;;;5143065;23;20175;-92
2023/02/19 10:04:11;;;;;;;12.02;2.22;;;11.80;99.90;;;;;;5143236;23;20206;-94
2023/02/19 10:06:23;;;;;;;13.07;2.03;;;11.80;99.90;;;;;;5143356;23;20234;-92
2023/02/19 10:08:24;;;;;;;11.68;1.80;;;11.80;99.90;;;;;;5168253;23;20151;-95
2023/02/19 10:10:34;;;;;;;11.73;2.20;;;11.90;99.90;;;;;;5142532;23;20174;-91
2023/02/19 10:12:35;;;;;;;12.13;2.10;;;11.90;99.90;;;;;;5143068;23;20157;-92
2023/02/19 10:14:41;;;;;;;12.10;2.20;;;12.10;99.90;;;;;;5167930;23;20280;-91
2023/02/19 10:16:44;;;;;;;9.57;1.77;;;11.90;99.90;;;;;;5143348;23;20158;-92
2023/02/19 10:18:46;;;;;;;15.35;2.13;;;11.80;99.90;;;;;;5193572;22;20150;-92
2023/02/19 10:20:48;;;;;;;10.27;2.42;;;12.00;99.90;;;;;;5143041;23;20152;-96
2023/02/19 10:22:58;;;;;;;11.15;1.88;;;12.10;99.90;;;;;;5143019;23;20163;-92
2023/02/19 10:24:59;;;;;;;12.98;2.38;;;12.00;99.90;;;;;;5168282;23;20143;-92
2023/02/19 10:26:59;;;;;;;14.48;2.80;;;12.10;99.90;;;;;;5143076;23;20159;-92
2023/02/19 10:29:01;;;;;;;11.02;2.10;;;12.00;99.90;;;;;;5142653;23;20472;-94
2023/02/19 10:31:10;;;;;;;11.75;2.28;;;11.90;99.90;;;;;;5142852;23;20166;-92
2023/02/19 10:33:13;;;;;;;20.02;2.90;;;11.90;99.90;;;;;;5142799;23;20186;-92
2023/02/19 10:35:15;;;;;;;15.27;2.10;;;12.30;99.90;;;;;;5167991;22;20645;-91
2023/02/19 10:37:17;;;;;;;16.95;2.50;;;12.30;99.90;;;;;;5193388;22;20235;-92
2023/02/19 10:39:20;;;;;;;12.95;2.55;;;12.10;99.90;;;;;;5142820;23;20598;-92
2023/02/19 10:41:24;;;;;;;11.73;2.00;;;12.40;99.90;;;;;;5167806;23;20151;-92
2023/02/19 10:43:32;;;;;;;13.57;2.58;;;12.50;99.90;;;;;;5168122;23;20155;-94
2023/02/19 10:45:39;;;;;;;12.02;1.98;;;12.30;99.90;;;;;;5168057;23;20154;-93
2023/02/19 10:47:46;;;;;;;11.18;1.83;;;12.00;99.90;;;;;;5168197;23;20151;-92
2023/02/19 10:49:48;;;;;;;9.38;1.80;;;12.10;99.90;;;;;;5193801;22;20270;-93
2023/02/19 10:51:51;;;;;;;10.88;2.15;;;12.20;99.90;;;;;;5142906;23;20151;-94
2023/02/19 10:54:05;;;;;;;13.30;2.60;;;12.00;99.90;;;;;;5143044;23;20642;-92
2023/02/19 10:56:14;;;;;;;16.20;2.42;;;12.10;99.90;;;;;;5168152;23;20209;-92
2023/02/19 10:58:24;;;;;;;11.13;2.15;;;12.00;99.90;;;;;;5143265;23;20156;-92
2023/02/19 11:00:29;;;;;;;10.75;2.28;;;12.00;99.90;;;;;;5142719;23;20163;-92
2023/02/19 11:02:30;;;;;;;12.90;2.38;;;12.30;99.90;;;;;;5142785;23;20182;-91
2023/02/19 11:04:34;;;;;;;9.95;2.42;;;12.30;99.90;;;;;;5143177;23;20147;-94
2023/02/19 11:06:34;;;;;;;12.68;1.90;;;12.10;99.90;;;;;;5168335;23;20641;-92
2023/02/19 11:08:56;;;;;;;15.45;2.72;;;11.90;99.90;;;;;;5142937;23;20151;-93
2023/02/19 11:10:57;;;;;;;11.68;2.45;;;12.20;99.90;;;;;;5143923;23;20583;-92
2023/02/19 11:13:01;;;;;;;13.10;2.65;;;12.30;99.90;;;;;;5144134;23;20167;-94
2023/02/19 11:15:28;;;;;;;14.30;2.10;;;12.20;99.90;;;;;;5143970;23;20183;-91
2023/02/19 11:17:29;;;;;;;18.60;2.13;;;12.40;99.90;;;;;;5144195;23;20143;-91
2023/02/19 11:19:38;;;;;;;13.50;2.55;;;12.40;99.90;;;;;;5194815;22;20235;-92
2023/02/19 11:21:39;;;;;;;8.82;2.42;;;12.40;99.90;;;;;;5169407;23;20482;-92
2023/02/19 11:23:45;;;;;;;11.73;1.92;;;12.50;99.90;;;;;;5144191;23;20201;-92
2023/02/19 11:25:47;;;;;;;6.00;1.88;;;12.40;99.90;;;;;;5144185;23;20544;-93
2023/02/19 11:28:06;;;;;;;14.50;2.63;;;12.40;99.90;;;;;;5144102;23;20230;-95